Time;durP1;ratioP1;P1;durP2;ratioP2;P2;SDS_P1;SDS_P2;PMS_P1;PMS_P2;Temp;Humidity;BMP_temperature;BMP_pressure;BME280_temperature;BME280_humidity;BME280_pressure;Samples;Min_cycle;Max_cycle;Signal;HPM_P1;HPM_P2
2021/09/07 00:01:25;;;;;;;0.50;0.50;;;;;;;19.99;58.11;102529.19;5007999;28;20064;-90
2021/09/07 00:03:51;;;;;;;0.10;0.10;;;;;;;19.98;58.28;102521.19;5019527;28;20104;-90
2021/09/07 00:06:18;;;;;;;0.13;0.13;;;;;;;19.96;58.33;102532.00;5021872;28;20030;-91
2021/09/07 00:08:45;;;;;;;0.95;0.95;;;;;;;19.94;58.13;102524.88;5020177;28;20131;-92
2021/09/07 00:11:11;;;;;;;0.15;0.15;;;;;;;19.92;58.14;102532.13;5019837;28;20022;-91
2021/09/07 00:13:38;;;;;;;0.08;0.08;;;;;;;19.90;58.45;102524.13;5008466;28;20033;-90
2021/09/07 00:16:04;;;;;;;0.40;0.40;;;;;;;19.88;58.44;102529.53;5028557;28;20029;-91
2021/09/07 00:18:31;;;;;;;0.45;0.45;;;;;;;19.84;58.65;102525.19;5027634;28;20022;-89
2021/09/07 00:20:58;;;;;;;0.20;0.20;;;;;;;19.83;58.67;102526.09;5025468;28;20021;-90
2021/09/07 00:23:24;;;;;;;0.65;0.65;;;;;;;19.82;58.48;102526.13;5024961;28;20215;-92
2021/09/07 00:25:51;;;;;;;0.20;0.20;;;;;;;19.82;58.72;102524.31;5025664;28;20105;-91
2021/09/07 00:28:18;;;;;;;0.63;0.50;;;;;;;19.81;58.81;102519.00;5024189;28;20037;-89
2021/09/07 00:30:44;;;;;;;1.13;1.02;;;;;;;19.79;58.85;102518.16;5029124;28;20025;-93
2021/09/07 00:33:11;;;;;;;1.58;1.30;;;;;;;19.76;58.77;102512.88;5029203;28;20047;-90
2021/09/07 00:35:38;;;;;;;0.20;0.20;;;;;;;19.72;58.80;102510.28;5028002;28;20057;-91
2021/09/07 00:38:05;;;;;;;0.85;0.85;;;;;;;19.70;58.76;102512.16;5025214;28;20112;-91
2021/09/07 00:40:31;;;;;;;1.95;0.47;;;;;;;19.68;58.71;102502.38;5027391;28;20096;-91
2021/09/07 00:42:58;;;;;;;0.40;0.40;;;;;;;19.66;58.78;102502.41;5027555;28;20881;-89
2021/09/07 00:45:24;;;;;;;0.22;0.22;;;;;;;19.66;58.80;102499.72;5028755;28;20365;-88
2021/09/07 00:47:51;;;;;;;0.40;0.40;;;;;;;19.65;58.49;102497.09;5025818;28;20590;-90
2021/09/07 00:52:55;;;;;;;0.30;0.30;;;;;;;19.59;58.85;102490.13;4982518;28;20039;-84
2021/09/07 00:55:25;;;;;;;0.10;0.10;;;;;;;19.58;58.87;102491.03;4985558;28;20022;-84
2021/09/07 00:57:59;;;;;;;0.10;0.10;;;;;;;19.60;59.08;102493.66;4982820;28;20023;-84
2021/09/07 01:00:26;;;;;;;0.10;0.10;;;;;;;19.55;58.84;102496.50;4987871;28;20019;-83
2021/09/07 01:02:52;;;;;;;0.05;0.05;;;;;;;19.54;58.84;102492.94;4989148;28;20045;-83
2021/09/07 01:05:19;;;;;;;0.00;0.00;;;;;;;19.51;59.16;102489.47;4987097;28;20031;-84
2021/09/07 01:07:46;;;;;;;0.45;0.45;;;;;;;19.51;59.20;102494.84;4989554;28;20031;-84
2021/09/07 01:10:13;;;;;;;0.55;0.55;;;;;;;19.47;59.18;102482.44;4988708;28;20145;-83
2021/09/07 01:12:39;;;;;;;0.10;0.10;;;;;;;19.45;59.30;102485.16;4985698;28;20027;-84
2021/09/07 01:15:08;;;;;;;0.10;0.10;;;;;;;19.45;59.03;102473.53;4986225;28;20026;-84
2021/09/07 01:17:34;;;;;;;0.73;0.73;;;;;;;19.44;59.22;102477.13;4982990;28;20033;-83
2021/09/07 01:20:01;;;;;;;0.63;0.63;;;;;;;19.42;59.18;102476.31;4983167;28;20034;-84
2021/09/07 01:22:27;;;;;;;0.20;0.20;;;;;;;19.42;59.23;102479.00;4982612;28;20118;-84
2021/09/07 01:24:53;;;;;;;0.95;0.95;;;;;;;19.40;59.24;102485.31;4988523;28;20117;-84
2021/09/07 01:27:21;;;;;;;0.05;0.05;;;;;;;19.37;59.18;102477.31;4981799;28;20031;-84
2021/09/07 01:29:48;;;;;;;0.20;0.20;;;;;;;19.39;59.21;102488.06;4992663;28;20065;-85
2021/09/07 01:32:16;;;;;;;0.30;0.30;;;;;;;19.36;59.36;102483.63;4981057;28;20121;-84
2021/09/07 01:34:43;;;;;;;0.20;0.20;;;;;;;19.33;59.47;102486.41;4986509;28;20129;-83
2021/09/07 01:37:09;;;;;;;0.35;0.35;;;;;;;19.30;59.65;102475.78;4987659;28;20482;-82
2021/09/07 01:39:36;;;;;;;1.05;0.95;;;;;;;19.29;59.49;102473.13;4980001;28;20437;-83
2021/09/07 01:42:03;;;;;;;0.10;0.10;;;;;;;19.29;59.43;102474.00;4992487;28;20023;-83
2021/09/07 01:44:32;;;;;;;0.10;0.10;;;;;;;19.29;59.26;102478.50;4988973;28;20501;-83
2021/09/07 01:46:58;;;;;;;0.85;0.85;;;;;;;19.29;59.22;102474.00;4995726;28;20113;-83
2021/09/07 01:49:25;;;;;;;0.10;0.10;;;;;;;19.28;59.13;102482.09;4981290;28;20081;-83
2021/09/07 01:51:51;;;;;;;1.13;0.95;;;;;;;19.27;59.36;102469.63;4991994;28;20121;-83
2021/09/07 01:54:20;;;;;;;0.95;0.95;;;;;;;19.24;59.28;102471.47;4984926;28;20053;-83
2021/09/07 01:56:47;;;;;;;0.10;0.10;;;;;;;19.22;59.43;102477.81;4995825;28;20026;-83
2021/09/07 01:59:14;;;;;;;0.30;0.30;;;;;;;19.21;59.61;102479.59;4982245;28;20058;-84
2021/09/07 02:01:40;;;;;;;0.20;0.20;;;;;;;19.20;59.63;102479.66;4977775;28;20504;-84
2021/09/07 02:04:06;;;;;;;0.73;0.70;;;;;;;19.19;59.51;102472.50;4984597;28;20041;-84
2021/09/07 02:06:33;;;;;;;0.40;0.40;;;;;;;19.16;59.71;102472.63;4982087;28;20041;-84
2021/09/07 02:08:59;;;;;;;0.32;0.32;;;;;;;19.01;59.83;102480.19;4981122;28;20031;-85
2021/09/07 02:11:26;;;;;;;0.10;0.10;;;;;;;18.86;60.54;102477.94;4988959;28;20034;-85
2021/09/07 02:13:52;;;;;;;0.30;0.30;;;;;;;18.81;60.87;102479.88;4986083;28;20141;-84
2021/09/07 02:16:19;;;;;;;0.20;0.20;;;;;;;18.78;60.92;102483.53;4993598;28;20042;-85
2021/09/07 02:18:45;;;;;;;0.30;0.30;;;;;;;18.81;60.75;102479.88;4989118;28;20026;-84
2021/09/07 02:21:12;;;;;;;1.13;1.10;;;;;;;18.81;60.70;102477.19;4988556;28;20022;-84
2021/09/07 02:23:38;;;;;;;0.52;0.52;;;;;;;18.79;60.95;102487.09;4988858;28;20030;-84
2021/09/07 02:26:04;;;;;;;0.10;0.10;;;;;;;18.76;60.76;102480.00;4986079;28;20046;-85
2021/09/07 02:28:31;;;;;;;0.15;0.15;;;;;;;18.76;60.50;102483.56;4977805;28;20031;-85
2021/09/07 02:30:57;;;;;;;0.20;0.20;;;;;;;18.76;60.84;102483.56;4985531;28;20393;-84
2021/09/07 02:33:24;;;;;;;0.05;0.05;;;;;;;18.78;60.54;102490.69;4985113;28;20107;-85
2021/09/07 02:35:50;;;;;;;1.38;0.75;;;;;;;18.75;61.00;102487.19;4991351;28;20417;-85
2021/09/07 02:38:16;;;;;;;0.00;0.00;;;;;;;18.74;60.91;102482.75;4981351;28;20042;-85
2021/09/07 02:40:43;;;;;;;1.23;1.23;;;;;;;18.73;60.82;102486.34;4981332;28;20050;-85
2021/09/07 02:43:09;;;;;;;0.10;0.10;;;;;;;18.72;60.88;102476.53;4978588;28;20573;-85
2021/09/07 02:45:36;;;;;;;0.73;0.73;;;;;;;18.67;61.08;102481.16;4984988;28;20030;-85
2021/09/07 02:48:02;;;;;;;0.17;0.17;;;;;;;18.64;60.93;102478.56;4987894;28;20386;-85
2021/09/07 02:50:28;;;;;;;2.35;0.25;;;;;;;18.63;60.94;102482.16;4987992;28;20072;-84
2021/09/07 02:52:55;;;;;;;0.10;0.10;;;;;;;18.65;60.78;102476.75;4987119;28;20098;-84
2021/09/07 02:55:21;;;;;;;0.17;0.17;;;;;;;18.63;60.88;102474.09;4984253;28;20470;-85
2021/09/07 02:57:48;;;;;;;0.47;0.47;;;;;;;18.59;61.14;102467.94;4986242;28;20031;-84
2021/09/07 03:00:14;;;;;;;0.20;0.20;;;;;;;18.57;61.04;102468.91;4987944;28;20027;-84
2021/09/07 03:02:41;;;;;;;0.38;0.38;;;;;;;18.56;60.79;102467.16;4970315;28;20122;-84
2021/09/07 03:05:07;;;;;;;0.00;0.00;;;;;;;18.54;61.02;102467.19;4985431;28;20065;-84
2021/09/07 03:07:34;;;;;;;0.05;0.05;;;;;;;18.52;61.28;102474.41;4984553;28;20019;-84
2021/09/07 03:10:00;;;;;;;0.10;0.10;;;;;;;18.53;61.29;102473.47;4987597;28;20030;-85
2021/09/07 03:12:26;;;;;;;0.15;0.15;;;;;;;18.53;61.11;102472.59;4987743;28;20436;-83
2021/09/07 03:14:53;;;;;;;0.80;0.80;;;;;;;18.53;61.27;102473.47;4989043;28;20033;-84
2021/09/07 03:17:19;;;;;;;0.10;0.10;;;;;;;18.50;61.50;102483.41;4989683;28;20145;-85
2021/09/07 03:19:55;;;;;;;0.20;0.20;;;;;;;18.53;61.46;102472.59;4985752;28;20026;-83
2021/09/07 03:22:21;;;;;;;0.70;0.50;;;;;;;18.51;61.36;102469.06;4987258;28;20133;-85
2021/09/07 03:24:47;;;;;;;0.10;0.10;;;;;;;18.50;61.28;102470.00;4993185;28;20121;-84
2021/09/07 03:27:14;;;;;;;0.13;0.13;;;;;;;18.47;61.14;102464.69;4993052;28;20031;-84
2021/09/07 03:29:40;;;;;;;1.25;1.25;;;;;;;18.45;61.62;102463.88;4983182;28;20073;-84
2021/09/07 03:32:07;;;;;;;0.30;0.30;;;;;;;18.46;61.40;102463.84;4980733;28;20019;-84
2021/09/07 03:34:33;;;;;;;0.10;0.10;;;;;;;18.46;61.25;102466.50;4980478;28;20390;-84
2021/09/07 03:36:59;;;;;;;0.13;0.13;;;;;;;18.48;61.26;102463.78;4980650;28;20042;-85
2021/09/07 03:39:26;;;;;;;0.10;0.10;;;;;;;18.47;61.34;102467.38;4983905;28;20022;-84
2021/09/07 03:41:52;;;;;;;1.10;1.10;;;;;;;18.46;61.32;102455.78;4981665;28;20077;-84
2021/09/07 03:44:18;;;;;;;1.23;1.23;;;;;;;18.46;61.59;102454.91;4985284;28;20054;-84
2021/09/07 03:46:44;;;;;;;0.40;0.40;;;;;;;18.45;61.58;102463.88;4993754;28;20034;-85
2021/09/07 03:49:11;;;;;;;0.50;0.50;;;;;;;18.43;61.57;102461.25;4984513;28;20038;-84
2021/09/07 03:51:37;;;;;;;0.30;0.30;;;;;;;18.58;60.97;102465.31;4985031;28;20045;-84
2021/09/07 03:54:03;;;;;;;0.98;0.98;;;;;;;18.66;60.54;102457.91;4986937;28;20027;-84
2021/09/07 03:56:30;;;;;;;0.17;0.17;;;;;;;18.68;60.68;102457.84;4984407;28;20053;-84
2021/09/07 03:58:57;;;;;;;0.20;0.20;;;;;;;18.68;60.51;102458.75;4991717;28;20066;-85
2021/09/07 04:01:23;;;;;;;0.47;0.47;;;;;;;18.68;60.41;102461.44;4989123;28;20041;-85
2021/09/07 04:03:49;;;;;;;0.20;0.20;;;;;;;18.69;60.29;102462.31;4979962;28;20030;-85
2021/09/07 04:06:16;;;;;;;0.03;0.03;;;;;;;18.66;60.51;102454.34;4987959;28;20031;-85
2021/09/07 04:08:42;;;;;;;0.55;0.55;;;;;;;18.41;61.37;102463.94;4977866;28;20027;-85
2021/09/07 04:11:08;;;;;;;0.45;0.45;;;;;;;18.37;61.51;102456.91;4978212;28;20030;-85
2021/09/07 04:13:34;;;;;;;0.10;0.10;;;;;;;18.34;61.52;102461.47;4978171;28;20030;-85
2021/09/07 04:16:00;;;;;;;0.30;0.30;;;;;;;18.33;61.70;102457.03;4984605;28;20370;-84
2021/09/07 04:18:26;;;;;;;0.22;0.22;;;;;;;18.31;61.38;102458.88;4996901;28;20487;-85
2021/09/07 04:20:52;;;;;;;0.38;0.38;;;;;;;18.29;61.69;102464.28;4996939;28;20029;-84
2021/09/07 04:23:19;;;;;;;0.35;0.35;;;;;;;18.28;61.80;102462.53;4996694;28;20026;-85
2021/09/07 04:25:45;;;;;;;0.75;0.75;;;;;;;18.24;61.98;102459.06;4985362;28;20039;-85
2021/09/07 04:28:11;;;;;;;0.13;0.13;;;;;;;18.25;61.67;102467.97;4977994;28;20454;-85
2021/09/07 04:30:38;;;;;;;0.20;0.20;;;;;;;18.22;61.71;102466.25;5001760;28;20548;-85
2021/09/07 04:33:04;;;;;;;0.43;0.43;;;;;;;18.23;61.93;102469.81;5005189;28;20034;-85
2021/09/07 04:35:30;;;;;;;0.17;0.17;;;;;;;18.21;61.93;102463.63;5006752;28;20041;-83
2021/09/07 04:37:57;;;;;;;0.40;0.40;;;;;;;18.20;61.71;102472.56;4996941;28;20420;-83
2021/09/07 04:40:23;;;;;;;0.47;0.47;;;;;;;18.17;61.76;102467.28;5001080;28;20104;-83
2021/09/07 04:42:49;;;;;;;0.38;0.38;;;;;;;18.15;61.82;102469.13;4996130;28;21134;-81
2021/09/07 04:45:16;;;;;;;0.10;0.10;;;;;;;18.25;61.55;102470.66;4997396;28;20030;-83
2021/09/07 04:47:42;;;;;;;0.25;0.25;;;;;;;18.23;61.68;102475.16;5005500;28;20524;-84
2021/09/07 04:50:08;;;;;;;0.40;0.40;;;;;;;18.13;61.85;102468.28;4990357;28;20044;-83
2021/09/07 04:52:35;;;;;;;0.95;0.77;;;;;;;18.13;61.47;102473.66;4990937;28;20078;-83
2021/09/07 04:55:01;;;;;;;0.47;0.47;;;;;;;18.14;61.78;102464.69;4985887;28;20030;-83
2021/09/07 04:57:27;;;;;;;0.10;0.10;;;;;;;18.15;62.03;102467.31;4986718;28;20027;-83
2021/09/07 04:59:53;;;;;;;2.55;1.67;;;;;;;18.17;61.94;102469.97;4985482;28;20097;-83
2021/09/07 05:02:19;;;;;;;0.65;0.65;;;;;;;18.28;61.88;102470.59;4997148;28;20038;-83
2021/09/07 05:04:45;;;;;;;0.03;0.03;;;;;;;18.31;61.84;102473.19;4983878;28;20031;-84
2021/09/07 05:07:12;;;;;;;1.20;1.20;;;;;;;18.37;61.44;102470.31;4992736;28;20125;-86
2021/09/07 05:09:39;;;;;;;0.10;0.10;;;;;;;18.42;61.73;102470.22;4996599;28;20030;-85
2021/09/07 05:12:06;;;;;;;0.00;0.00;;;;;;;18.47;61.57;102479.00;4997022;28;20038;-84
2021/09/07 05:14:32;;;;;;;0.40;0.40;;;;;;;18.52;61.52;102478.91;4996340;28;20027;-84
2021/09/07 05:16:58;;;;;;;0.70;0.70;;;;;;;18.58;61.88;102476.03;4996475;28;20042;-84
2021/09/07 05:19:24;;;;;;;0.82;0.82;;;;;;;18.66;61.73;102473.16;4996262;28;20117;-84
2021/09/07 05:21:50;;;;;;;0.20;0.20;;;;;;;18.72;61.80;102483.72;4996930;28;20030;-84
2021/09/07 05:24:16;;;;;;;0.50;0.50;;;;;;;18.80;61.79;102486.16;4996160;28;20405;-83
2021/09/07 05:26:42;;;;;;;1.38;0.95;;;;;;;18.86;61.76;102480.63;4996079;28;20057;-83
2021/09/07 05:29:09;;;;;;;0.32;0.32;;;;;;;18.92;61.89;102480.47;4996236;28;20081;-83
2021/09/07 05:31:35;;;;;;;0.50;0.50;;;;;;;18.99;61.73;102491.91;4996408;28;20494;-83
2021/09/07 05:34:01;;;;;;;0.10;0.10;;;;;;;19.06;61.91;102496.19;4996598;28;20057;-84
2021/09/07 05:36:27;;;;;;;0.10;0.10;;;;;;;19.12;61.85;102487.94;4996164;28;20037;-84
2021/09/07 05:38:53;;;;;;;0.55;0.55;;;;;;;19.20;61.79;102493.09;4996068;28;20038;-83
2021/09/07 05:41:19;;;;;;;1.55;0.77;;;;;;;19.26;61.99;102478.59;4996038;28;20049;-84
2021/09/07 05:43:45;;;;;;;0.30;0.30;;;;;;;19.31;62.26;102493.63;4996129;28;20030;-84
2021/09/07 05:46:12;;;;;;;0.45;0.45;;;;;;;19.37;62.25;102481.84;4996238;28;20030;-83
2021/09/07 05:48:38;;;;;;;2.45;1.10;;;;;;;19.44;62.42;102490.56;4995863;28;20529;-84
2021/09/07 05:51:04;;;;;;;0.65;0.65;;;;;;;19.45;63.04;102487.88;4994433;28;20116;-83
2021/09/07 05:53:30;;;;;;;0.63;0.63;;;;;;;19.49;62.76;102492.19;4994811;28;20165;-83
2021/09/07 05:55:56;;;;;;;0.30;0.30;;;;;;;19.54;62.23;102484.88;4996073;28;20180;-84
2021/09/07 05:58:22;;;;;;;0.55;0.55;;;;;;;19.60;62.40;102483.81;4995758;28;20034;-84
2021/09/07 06:00:48;;;;;;;2.08;1.45;;;;;;;19.65;62.83;102480.94;4995893;28;20498;-85
2021/09/07 06:03:15;;;;;;;0.30;0.30;;;;;;;19.72;62.47;102480.69;4994242;28;20034;-86
2021/09/07 06:05:41;;;;;;;0.45;0.45;;;;;;;19.80;62.09;102485.84;4995614;28;20453;-84
2021/09/07 06:08:07;;;;;;;0.10;0.10;;;;;;;19.87;62.03;102489.25;4995265;28;20092;-85
2021/09/07 06:10:33;;;;;;;0.20;0.20;;;;;;;19.92;62.06;102479.19;4995553;28;20034;-85
2021/09/07 06:13:00;;;;;;;0.13;0.13;;;;;;;20.00;61.91;102485.22;4995342;28;20076;-85
2021/09/07 06:15:26;;;;;;;0.28;0.28;;;;;;;20.07;61.90;102487.69;4995098;28;20037;-84
2021/09/07 06:17:52;;;;;;;1.83;1.73;;;;;;;20.12;61.82;102496.50;4995854;28;20027;-84
2021/09/07 06:20:19;;;;;;;0.10;0.10;;;;;;;20.17;61.85;102489.13;4995316;28;20067;-85
2021/09/07 06:22:45;;;;;;;0.10;0.10;;;;;;;20.23;62.00;102490.75;4995344;28;20076;-83
2021/09/07 06:25:11;;;;;;;1.85;1.40;;;;;;;20.26;61.70;102488.84;4995677;28;20425;-85
2021/09/07 06:27:37;;;;;;;0.30;0.30;;;;;;;20.31;61.61;102486.84;4995306;28;20065;-85
2021/09/07 06:30:04;;;;;;;0.75;0.52;;;;;;;20.38;61.62;102492.91;4993146;28;20470;-85
2021/09/07 06:32:31;;;;;;;0.38;0.38;;;;;;;20.46;61.40;102489.91;4995157;28;20041;-83
2021/09/07 06:34:58;;;;;;;0.73;0.73;;;;;;;20.54;61.58;102490.53;4994647;28;20030;-83
2021/09/07 06:37:24;;;;;;;0.20;0.20;;;;;;;20.62;61.47;102496.53;4994772;28;20030;-84
2021/09/07 06:39:51;;;;;;;1.92;1.20;;;;;;;20.72;61.35;102501.63;4995110;28;20038;-84
2021/09/07 06:42:17;;;;;;;0.30;0.30;;;;;;;20.80;60.93;102494.16;4995058;28;20029;-84
2021/09/07 06:44:43;;;;;;;0.28;0.28;;;;;;;20.85;61.06;102497.53;4995007;28;20030;-84
2021/09/07 06:47:09;;;;;;;1.08;1.05;;;;;;;20.91;60.87;102497.31;4994298;28;20045;-84
2021/09/07 06:49:35;;;;;;;0.45;0.45;;;;;;;20.98;60.89;102493.44;4995048;28;20035;-83
2021/09/07 06:52:01;;;;;;;2.38;0.47;;;;;;;21.27;60.36;102496.84;4994864;28;20034;-84
2021/09/07 06:54:27;;;;;;;0.20;0.20;;;;;;;21.39;59.93;102497.31;4995006;28;20034;-85
2021/09/07 06:56:54;;;;;;;0.45;0.45;;;;;;;21.48;59.69;102496.91;4994638;28;20466;-84
2021/09/07 06:59:20;;;;;;;0.10;0.10;;;;;;;21.55;59.67;102489.47;4994720;28;20378;-84
2021/09/07 07:01:46;;;;;;;0.57;0.57;;;;;;;21.64;59.44;102498.09;4995031;28;20030;-83
2021/09/07 07:04:12;;;;;;;0.20;0.20;;;;;;;21.69;59.30;102500.59;4994534;28;20034;-83
2021/09/07 07:06:38;;;;;;;0.28;0.28;;;;;;;21.79;59.05;102496.63;4994560;28;20371;-83
2021/09/07 07:09:04;;;;;;;0.45;0.45;;;;;;;21.86;58.87;102491.81;4994538;28;20046;-84
2021/09/07 07:11:30;;;;;;;2.08;1.77;;;;;;;21.95;59.12;102496.81;4994720;28;20070;-82
2021/09/07 07:13:57;;;;;;;1.25;1.23;;;;;;;22.06;59.01;102503.63;4994272;28;20117;-83
2021/09/07 07:16:23;;;;;;;0.65;0.65;;;;;;;22.07;58.71;102505.34;4994358;28;20050;-82
2021/09/07 07:18:49;;;;;;;0.38;0.38;;;;;;;22.14;58.56;102496.94;4994077;28;20089;-83
2021/09/07 07:21:15;;;;;;;1.48;1.48;;;;;;;22.15;58.11;102500.50;4993640;28;20033;-83
2021/09/07 07:23:41;;;;;;;1.02;0.55;;;;;;;22.25;57.82;102499.16;4994198;28;20378;-83
2021/09/07 07:26:07;;;;;;;0.32;0.32;;;;;;;22.29;57.57;102503.50;4994012;28;20145;-83
2021/09/07 07:28:34;;;;;;;1.00;1.00;;;;;;;22.33;57.46;102506.97;4993983;28;20073;-82
2021/09/07 07:31:00;;;;;;;2.08;0.63;;;;;;;22.43;57.67;102508.34;4989049;28;20038;-82
2021/09/07 07:33:26;;;;;;;0.63;0.57;;;;;;;22.48;57.57;102505.44;4994042;28;20030;-83
2021/09/07 07:35:52;;;;;;;0.38;0.38;;;;;;;22.44;57.24;102504.69;4994279;28;20390;-82
2021/09/07 07:38:18;;;;;;;2.33;2.20;;;;;;;22.49;57.27;102509.88;4994122;28;20034;-82
2021/09/07 07:40:45;;;;;;;0.20;0.20;;;;;;;22.52;57.21;102511.56;4994307;28;20092;-84
2021/09/07 07:43:11;;;;;;;0.25;0.20;;;;;;;22.50;57.23;102514.34;4998489;28;20391;-83
2021/09/07 07:45:37;;;;;;;1.42;1.33;;;;;;;22.55;57.22;102515.00;4997629;28;20034;-83
2021/09/07 07:48:04;;;;;;;0.10;0.10;;;;;;;22.57;56.85;102510.41;4997824;28;20022;-83
2021/09/07 07:50:30;;;;;;;0.77;0.77;;;;;;;22.66;56.86;102519.06;4997859;28;20045;-83
2021/09/07 07:53:02;;;;;;;3.10;0.85;;;;;;;22.69;57.09;102518.94;4998365;28;20074;-83
2021/09/07 07:55:29;;;;;;;2.23;1.70;;;;;;;22.74;56.85;102516.88;4998053;28;20038;-84
2021/09/07 07:57:55;;;;;;;0.70;0.70;;;;;;;22.83;56.96;102513.78;4998345;28;20030;-82
2021/09/07 08:00:21;;;;;;;1.23;1.23;;;;;;;22.91;56.91;102511.59;4996691;28;20034;-83
2021/09/07 08:02:47;;;;;;;0.20;0.20;;;;;;;22.99;56.43;102511.25;4997887;28;20484;-82
2021/09/07 08:05:13;;;;;;;0.20;0.20;;;;;;;23.08;56.14;102518.06;4997681;28;20531;-82
2021/09/07 08:07:40;;;;;;;3.20;2.08;;;;;;;23.10;56.24;102521.56;4998330;28;20073;-82
2021/09/07 08:10:06;;;;;;;0.73;0.73;;;;;;;23.20;56.13;102516.63;4997500;28;20544;-82
2021/09/07 08:12:32;;;;;;;0.50;0.50;;;;;;;23.25;56.06;102512.78;4996709;28;20401;-83
2021/09/07 08:14:58;;;;;;;0.32;0.32;;;;;;;23.36;56.14;102519.50;4997446;28;20038;-82
2021/09/07 08:17:24;;;;;;;0.98;0.55;;;;;;;23.50;55.84;102521.53;4997396;28;20033;-82
2021/09/07 08:19:50;;;;;;;0.60;0.55;;;;;;;23.62;55.22;102522.78;4997416;28;20103;-82
2021/09/07 08:22:17;;;;;;;0.10;0.10;;;;;;;23.76;55.19;102525.66;4997785;28;20030;-83
2021/09/07 08:24:43;;;;;;;0.30;0.30;;;;;;;23.89;54.90;102524.13;4997597;28;20109;-82
2021/09/07 08:27:10;;;;;;;0.20;0.20;;;;;;;24.09;54.82;102529.50;4997501;28;20053;-82
2021/09/07 08:29:36;;;;;;;3.25;1.55;;;;;;;24.23;54.42;102527.84;4997292;28;20061;-82
2021/09/07 08:32:02;;;;;;;0.20;0.20;;;;;;;24.37;53.91;102523.56;4996783;28;20023;-82
2021/09/07 08:34:29;;;;;;;0.10;0.10;;;;;;;24.46;53.90;102528.50;4997221;28;20042;-82
2021/09/07 08:36:55;;;;;;;1.10;1.10;;;;;;;24.60;53.19;102532.31;4996834;28;20485;-83
2021/09/07 08:39:22;;;;;;;0.85;0.85;;;;;;;24.66;53.38;102529.31;4997042;28;20035;-83
2021/09/07 08:41:48;;;;;;;0.20;0.20;;;;;;;24.76;53.40;102525.16;4997082;28;20031;-83
2021/09/07 08:44:21;;;;;;;0.82;0.82;;;;;;;24.83;51.08;102518.44;4996969;28;20425;-83
2021/09/07 08:46:48;;;;;;;0.55;0.38;;;;;;;24.90;53.06;102520.81;4996911;28;20041;-84
2021/09/07 08:49:17;;;;;;;1.65;0.75;;;;;;;24.92;51.22;102516.19;4997226;28;20030;-88
2021/09/07 08:51:43;;;;;;;0.65;0.65;;;;;;;25.06;51.82;102521.75;4997079;28;20039;-88
2021/09/07 08:54:10;;;;;;;0.52;0.52;;;;;;;25.09;52.25;102516.13;4996159;28;20453;-88
2021/09/07 08:56:36;;;;;;;0.50;0.50;;;;;;;25.12;51.99;102518.69;4997040;28;20058;-88
2021/09/07 08:59:03;;;;;;;0.30;0.30;;;;;;;25.18;51.91;102518.34;4997068;28;20417;-86
2021/09/07 09:01:38;;;;;;;2.25;1.25;;;;;;;25.31;50.48;102520.34;4997371;28;20037;-86
2021/09/07 09:04:04;;;;;;;1.00;1.00;;;;;;;25.26;49.41;102526.06;4996775;28;20092;-88
2021/09/07 09:06:31;;;;;;;3.00;2.15;;;;;;;25.38;50.41;102524.50;4996980;28;20046;-88
2021/09/07 09:09:07;;;;;;;1.15;1.15;;;;;;;25.52;49.30;102516.47;4996511;28;20027;-87
2021/09/07 09:11:54;;;;;;;2.17;1.65;;;;;;;25.50;46.37;102515.69;4996542;28;20030;-87
2021/09/07 09:14:41;;;;;;;4.35;1.60;;;;;;;25.55;48.17;102517.28;4996712;28;20041;-86
2021/09/07 09:20:08;;;;;;;0.63;0.63;;;;;;;25.17;48.67;102516.59;5051214;28;20436;-84
2021/09/07 09:30:55;;;;;;;1.13;1.08;;;;;;;25.18;49.22;102514.75;5070924;27;20407;-85
2021/09/07 09:33:26;;;;;;;8.57;1.30;;;;;;;25.28;49.27;102506.97;5070737;28;20557;-85
2021/09/07 09:35:56;;;;;;;1.95;1.83;;;;;;;25.39;49.47;102504.56;5070278;28;20052;-86
2021/09/07 09:38:25;;;;;;;0.40;0.40;;;;;;;25.49;49.92;102508.50;5070850;28;20500;-85
2021/09/07 09:40:58;;;;;;;2.28;1.23;;;;;;;25.62;48.16;102503.25;5070371;28;20475;-87
2021/09/07 09:43:43;;;;;;;0.50;0.50;;;;;;;25.69;47.32;102503.75;5070623;28;20021;-86
2021/09/07 09:46:29;;;;;;;0.38;0.38;;;;;;;25.87;46.89;102503.66;5070766;28;20430;-85
2021/09/07 09:49:13;;;;;;;0.73;0.73;;;;;;;25.91;45.90;102505.25;5061585;28;20039;-85
2021/09/07 09:51:42;;;;;;;0.68;0.68;;;;;;;25.94;45.51;102491.47;5070259;28;20033;-85
2021/09/07 09:54:08;;;;;;;1.33;1.30;;;;;;;25.96;47.46;102494.97;5071095;28;20028;-86
2021/09/07 09:56:36;;;;;;;1.15;1.05;;;;;;;26.07;45.65;102487.09;5070494;28;20028;-88
2021/09/07 09:59:02;;;;;;;1.20;1.15;;;;;;;26.25;45.63;102479.66;5069823;28;20025;-85
2021/09/07 10:01:29;;;;;;;0.28;0.28;;;;;;;26.31;46.23;102483.84;5069934;28;20044;-85
2021/09/07 10:04:00;;;;;;;8.02;0.85;;;;;;;26.39;44.64;102480.66;5070206;28;20410;-87
2021/09/07 10:06:26;;;;;;;0.43;0.43;;;;;;;26.52;44.88;102480.75;5064453;28;20112;-86
2021/09/07 10:08:53;;;;;;;1.95;1.20;;;;;;;26.52;44.49;102476.22;5059986;28;20028;-87
2021/09/07 10:11:27;;;;;;;0.30;0.30;;;;;;;26.67;43.28;102482.56;5059345;28;20031;-83
2021/09/07 10:13:57;;;;;;;0.50;0.50;;;;;;;26.67;43.08;102481.66;5058799;28;20388;-85
2021/09/07 10:16:39;;;;;;;2.97;0.80;;;;;;;26.82;44.65;102477.13;5063841;28;20029;-86
2021/09/07 10:19:09;;;;;;;;;;;;;;;26.97;43.06;102478.88;5070617;28;20033;-86
2021/09/07 10:24:20;;;;;;;3.65;1.77;;;;;;;26.94;42.33;102479.97;5090876;27;20979;-84
2021/09/07 10:32:23;;;;;;;0.20;0.20;;;;;;;27.34;43.74;102473.78;5078366;27;20408;-87
2021/09/07 10:35:08;;;;;;;0.85;0.85;;;;;;;27.49;41.10;102471.03;5070874;28;20028;-87
2021/09/07 10:38:10;;;;;;;4.05;1.27;;;;;;;27.57;43.66;102468.69;5070703;28;20032;-86
2021/09/07 10:40:42;;;;;;;4.18;1.20;;;;;;;27.61;40.13;102459.31;5070742;28;20028;-88
2021/09/07 10:43:08;;;;;;;1.00;0.65;;;;;;;27.63;40.01;102462.84;5070597;28;20116;-86
2021/09/07 10:45:37;;;;;;;0.20;0.20;;;;;;;27.77;40.99;102465.47;5066303;28;20103;-84
2021/09/07 10:48:32;;;;;;;0.43;0.43;;;;;;;27.93;40.74;102456.28;5060772;28;20029;-84
2021/09/07 10:51:00;;;;;;;0.75;0.75;;;;;;;27.88;40.59;102450.28;5059736;28;20021;-86
2021/09/07 10:53:27;;;;;;;0.10;0.10;;;;;;;28.13;39.23;102463.09;5060194;28;20116;-86
2021/09/07 10:55:53;;;;;;;0.50;0.50;;;;;;;28.34;39.47;102447.09;5063020;28;20021;-85
2021/09/07 10:58:34;;;;;;;0.22;0.22;;;;;;;28.44;39.46;102450.03;5063586;28;20056;-86
2021/09/07 11:01:23;;;;;;;0.20;0.20;;;;;;;28.53;39.49;102452.09;5066232;28;20029;-85
2021/09/07 11:04:31;;;;;;;0.30;0.30;;;;;;;28.65;40.08;102444.03;5064075;28;20116;-85
2021/09/07 11:06:58;;;;;;;0.35;0.35;;;;;;;28.58;38.76;102444.47;5055880;28;20074;-86
2021/09/07 11:10:03;;;;;;;0.90;0.90;;;;;;;28.76;39.63;102440.56;5057241;28;20032;-89
2021/09/07 11:12:31;;;;;;;0.63;0.63;;;;;;;28.76;39.46;102435.97;5050281;28;20021;-90
2021/09/07 11:18:09;;;;;;;0.82;0.82;;;;;;;28.89;39.12;102433.22;5152578;27;20381;-89
2021/09/07 11:20:41;;;;;;;1.33;0.85;;;;;;;28.99;38.93;102426.09;5135887;28;20035;-89
2021/09/07 11:23:30;;;;;;;1.58;1.48;;;;;;;29.16;39.43;102429.44;5116898;28;20028;-90
2021/09/07 11:28:44;;;;;;;0.60;0.52;;;;;;;29.35;37.83;102427.09;5098532;22;20405;-83
2021/09/07 11:31:12;;;;;;;1.95;1.85;;;;;;;29.43;38.16;102425.66;5084535;28;20506;-87
2021/09/07 11:33:40;;;;;;;0.10;0.10;;;;;;;29.47;36.88;102427.16;5070839;28;20484;-85
2021/09/07 11:36:09;;;;;;;0.52;0.52;;;;;;;29.61;39.66;102418.81;5071237;28;20498;-85
2021/09/07 11:38:39;;;;;;;0.40;0.40;;;;;;;29.81;38.50;102416.41;5071180;28;20082;-86
2021/09/07 11:41:10;;;;;;;0.20;0.20;;;;;;;29.81;37.42;102414.53;5071049;28;20037;-86
2021/09/07 11:51:54;;;;;;;0.63;0.63;;;;;;;29.90;36.86;102410.25;5101883;27;20142;-86
2021/09/07 11:54:20;;;;;;;1.42;1.20;;;;;;;29.96;37.22;102412.50;5099194;28;20034;-88
2021/09/07 11:56:55;;;;;;;2.83;1.30;;;;;;;30.12;37.29;102414.00;5092054;28;20111;-85
2021/09/07 11:59:21;;;;;;;1.95;0.90;;;;;;;30.12;37.92;102403.06;5091065;28;20364;-86
2021/09/07 12:01:50;;;;;;;0.32;0.32;;;;;;;30.09;37.47;102397.88;5090908;28;20554;-86
2021/09/07 12:04:18;;;;;;;0.63;0.63;;;;;;;30.14;36.14;102401.94;5090862;28;20021;-86